Terminal Aerodrome Forecast
Issued by NWS Twin Cities, MN

Home | Current Version | Previous Version | Graphics & Text | Print | Product List | Glossary On
Versions: 1 2 3 4 5 6 7 8 9 10 11 12 13 14 15 16 17 18 19 20 21 22 23 24 25 26 27
000
FTUS43 KMPX 210540
TAFMSP
TAF
KMSP 210540Z 2106/2212 VRB03KT P6SM SKC
     FM211300 11007KT P6SM SKC
     FM211800 13013G20KT P6SM SKC
     FM212200 13012G20KT P6SM BKN035
     FM220200 15012KT P6SM SCT050=

USA.gov is the U.S. government's official web portal to all federal, state and local government web resources and services.